Time;durP1;ratioP1;P1;durP2;ratioP2;P2;SDS_P1;SDS_P2;PMS_P1;PMS_P2;Temp;Humidity;BMP_temperature;BMP_pressure;BME280_temperature;BME280_humidity;BME280_pressure;Samples;Min_cycle;Max_cycle;Signal;HPM_P1;HPM_P2
2022/01/09 00:02:01;;;;;;;0.65;0.65;;;;;;;;;;5088218;28;20496;-71
2022/01/09 00:04:26;;;;;;;0.30;0.30;;;;;;;;;;5090530;28;20020;-72
2022/01/09 00:06:51;;;;;;;0.00;0.00;;;;;;;;;;5088581;28;20030;-71
2022/01/09 00:09:17;;;;;;;1.45;0.80;;;;;;;;;;5087433;28;20028;-71
2022/01/09 00:11:42;;;;;;;0.05;0.05;;;;;;;;;;5088994;28;20024;-72
2022/01/09 00:14:07;;;;;;;0.30;0.30;;;;;;;;;;5086772;28;20024;-71
2022/01/09 00:16:32;;;;;;;0.45;0.45;;;;;;;;;;5088205;28;20091;-71
2022/01/09 00:18:58;;;;;;;0.43;0.43;;;;;;;;;;5088289;28;20087;-71
2022/01/09 00:21:23;;;;;;;0.00;0.00;;;;;;;;;;5088807;28;20612;-71
2022/01/09 00:23:48;;;;;;;0.08;0.08;;;;;;;;;;5088182;28;20028;-71
2022/01/09 00:26:13;;;;;;;0.00;0.00;;;;;;;;;;5088859;28;20020;-71
2022/01/09 00:28:39;;;;;;;0.00;0.00;;;;;;;;;;5087858;28;20012;-71
2022/01/09 00:31:04;;;;;;;1.10;0.70;;;;;;;;;;5087588;28;20027;-72
2022/01/09 00:33:29;;;;;;;0.10;0.10;;;;;;;;;;5088280;28;20099;-71
2022/01/09 00:35:54;;;;;;;5.50;0.68;;;;;;;;;;5088073;28;21879;-71
2022/01/09 00:38:20;;;;;;;0.30;0.30;;;;;;;;;;5086755;28;20504;-71
2022/01/09 00:40:45;;;;;;;0.95;0.95;;;;;;;;;;5086229;28;20023;-71
2022/01/09 00:43:11;;;;;;;1.00;1.00;;;;;;;;;;5087690;28;20016;-71
2022/01/09 00:45:37;;;;;;;0.98;0.98;;;;;;;;;;5088011;28;20020;-71
2022/01/09 00:48:02;;;;;;;0.00;0.00;;;;;;;;;;5087861;28;20104;-71
2022/01/09 00:50:28;;;;;;;0.77;0.45;;;;;;;;;;5087826;28;20035;-72
2022/01/09 00:52:53;;;;;;;0.32;0.32;;;;;;;;;;5087685;28;20016;-71
2022/01/09 00:55:18;;;;;;;0.28;0.28;;;;;;;;;;5087783;28;20032;-62
2022/01/09 00:57:44;;;;;;;0.43;0.43;;;;;;;;;;5088029;28;20028;-62
2022/01/09 01:00:09;;;;;;;0.22;0.22;;;;;;;;;;5086542;28;20020;-63
2022/01/09 01:02:34;;;;;;;0.00;0.00;;;;;;;;;;5087977;28;20027;-62
2022/01/09 01:05:00;;;;;;;0.43;0.43;;;;;;;;;;5087473;28;20026;-62
2022/01/09 01:07:27;;;;;;;0.65;0.65;;;;;;;;;;5085419;28;20012;-62
2022/01/09 01:09:52;;;;;;;0.00;0.00;;;;;;;;;;5087442;28;20048;-62
2022/01/09 01:12:18;;;;;;;0.50;0.30;;;;;;;;;;5087533;28;20550;-62
2022/01/09 01:14:43;;;;;;;0.00;0.00;;;;;;;;;;5087538;28;20453;-63
2022/01/09 01:17:09;;;;;;;0.52;0.47;;;;;;;;;;5087287;28;20020;-63
2022/01/09 01:19:34;;;;;;;1.33;1.25;;;;;;;;;;5087486;28;20050;-63
2022/01/09 01:22:01;;;;;;;0.45;0.45;;;;;;;;;;5087313;28;20024;-63
2022/01/09 01:24:26;;;;;;;0.00;0.00;;;;;;;;;;5087484;28;20024;-63
2022/01/09 01:26:52;;;;;;;0.25;0.08;;;;;;;;;;5087026;28;20023;-62
2022/01/09 01:29:18;;;;;;;0.22;0.22;;;;;;;;;;5087390;28;20473;-63
2022/01/09 01:31:43;;;;;;;0.30;0.30;;;;;;;;;;5087439;28;20032;-63
2022/01/09 01:34:08;;;;;;;0.00;0.00;;;;;;;;;;5087129;28;20938;-62
2022/01/09 01:36:34;;;;;;;0.47;0.35;;;;;;;;;;5085900;28;20484;-63
2022/01/09 01:38:59;;;;;;;0.00;0.00;;;;;;;;;;5087061;28;20048;-62
2022/01/09 01:41:24;;;;;;;0.10;0.10;;;;;;;;;;5086677;28;20395;-62
2022/01/09 01:43:49;;;;;;;0.20;0.20;;;;;;;;;;5087057;28;20091;-61
2022/01/09 01:46:15;;;;;;;0.13;0.13;;;;;;;;;;5086768;28;20020;-62
2022/01/09 01:48:40;;;;;;;0.00;0.00;;;;;;;;;;5087162;28;20428;-61
2022/01/09 01:51:05;;;;;;;0.10;0.10;;;;;;;;;;5086673;28;22432;-62
2022/01/09 01:53:31;;;;;;;0.30;0.30;;;;;;;;;;5087078;28;20642;-62
2022/01/09 01:55:57;;;;;;;2.38;0.52;;;;;;;;;;5086865;28;20495;-61
2022/01/09 01:58:23;;;;;;;0.08;0.08;;;;;;;;;;5086968;28;20054;-62
2022/01/09 02:00:49;;;;;;;1.20;1.08;;;;;;;;;;5086764;28;20038;-62
2022/01/09 02:03:14;;;;;;;0.55;0.55;;;;;;;;;;5086680;28;20016;-62
2022/01/09 02:05:43;;;;;;;0.00;0.00;;;;;;;;;;5086201;28;20462;-61
2022/01/09 02:08:08;;;;;;;1.08;1.08;;;;;;;;;;5085805;28;20012;-61
2022/01/09 02:10:34;;;;;;;0.00;0.00;;;;;;;;;;5086957;28;20027;-62
2022/01/09 02:13:00;;;;;;;0.00;0.00;;;;;;;;;;5086592;28;20044;-61
2022/01/09 02:15:25;;;;;;;1.00;0.13;;;;;;;;;;5087154;28;20380;-62
2022/01/09 02:17:50;;;;;;;0.00;0.00;;;;;;;;;;5087028;28;20035;-62
2022/01/09 02:20:15;;;;;;;0.15;0.15;;;;;;;;;;5086536;28;20024;-61
2022/01/09 02:22:41;;;;;;;0.28;0.28;;;;;;;;;;5086783;28;20476;-61
2022/01/09 02:25:06;;;;;;;0.20;0.20;;;;;;;;;;5084601;28;20058;-62
2022/01/09 02:27:31;;;;;;;0.03;0.03;;;;;;;;;;5086903;28;20472;-62
2022/01/09 02:29:57;;;;;;;0.00;0.00;;;;;;;;;;5086178;28;20048;-62
2022/01/09 02:32:22;;;;;;;0.00;0.00;;;;;;;;;;5086473;28;20028;-62
2022/01/09 02:34:50;;;;;;;1.00;0.60;;;;;;;;;;5085299;28;20020;-61
2022/01/09 02:37:15;;;;;;;0.00;0.00;;;;;;;;;;5087756;28;20486;-62
2022/01/09 02:39:40;;;;;;;0.00;0.00;;;;;;;;;;5089979;28;20111;-62
2022/01/09 02:42:16;;;;;;;0.10;0.10;;;;;;;;;;5089914;28;20020;-62
2022/01/09 02:44:41;;;;;;;0.25;0.13;;;;;;;;;;5090643;28;20536;-62
2022/01/09 02:47:07;;;;;;;0.00;0.00;;;;;;;;;;5089390;28;20024;-62
2022/01/09 02:49:33;;;;;;;0.00;0.00;;;;;;;;;;5090398;28;20027;-63
2022/01/09 02:51:58;;;;;;;0.22;0.22;;;;;;;;;;5089754;28;20103;-62
2022/01/09 02:57:07;;;;;;;0.55;0.55;;;;;;;;;;5090093;28;20043;-62
2022/01/09 02:59:32;;;;;;;0.10;0.10;;;;;;;;;;5089808;28;20024;-63
2022/01/09 03:01:57;;;;;;;0.10;0.10;;;;;;;;;;5087914;28;20008;-62
2022/01/09 03:04:23;;;;;;;0.43;0.32;;;;;;;;;;5089594;28;20040;-63
2022/01/09 03:06:48;;;;;;;0.00;0.00;;;;;;;;;;5090223;28;20187;-63
2022/01/09 03:09:13;;;;;;;0.10;0.10;;;;;;;;;;5089562;28;20365;-63
2022/01/09 03:11:40;;;;;;;0.00;0.00;;;;;;;;;;5089909;28;20050;-62
2022/01/09 03:14:07;;;;;;;0.30;0.30;;;;;;;;;;5089257;28;20016;-62
2022/01/09 03:16:32;;;;;;;0.00;0.00;;;;;;;;;;5089435;28;20054;-62
2022/01/09 03:18:57;;;;;;;0.00;0.00;;;;;;;;;;5088804;28;20538;-62
2022/01/09 03:21:23;;;;;;;0.00;0.00;;;;;;;;;;5089974;28;20086;-62
2022/01/09 03:23:48;;;;;;;0.20;0.10;;;;;;;;;;5089576;28;20069;-63
2022/01/09 03:26:13;;;;;;;0.00;0.00;;;;;;;;;;5089106;28;20039;-63
2022/01/09 03:28:39;;;;;;;0.30;0.30;;;;;;;;;;5089166;28;20095;-63
2022/01/09 03:31:04;;;;;;;0.00;0.00;;;;;;;;;;5086567;28;20024;-63
2022/01/09 03:33:29;;;;;;;0.75;0.20;;;;;;;;;;5090163;28;20028;-61
2022/01/09 03:35:54;;;;;;;0.00;0.00;;;;;;;;;;5089788;28;20065;-63
2022/01/09 03:38:19;;;;;;;0.00;0.00;;;;;;;;;;5090640;28;20028;-62
2022/01/09 03:40:45;;;;;;;0.00;0.00;;;;;;;;;;5090370;28;20595;-62
2022/01/09 03:43:10;;;;;;;0.00;0.00;;;;;;;;;;5089861;28;20015;-62
2022/01/09 03:45:35;;;;;;;0.22;0.22;;;;;;;;;;5090599;28;20031;-62
2022/01/09 03:48:00;;;;;;;0.00;0.00;;;;;;;;;;5090013;28;20061;-62
2022/01/09 03:50:26;;;;;;;0.00;0.00;;;;;;;;;;5090507;28;20036;-62
2022/01/09 03:52:52;;;;;;;0.75;0.75;;;;;;;;;;5090069;28;20388;-62
2022/01/09 03:55:19;;;;;;;0.00;0.00;;;;;;;;;;5090188;28;20024;-62
2022/01/09 03:57:44;;;;;;;0.00;0.00;;;;;;;;;;5090542;28;20128;-62
2022/01/09 04:00:12;;;;;;;0.00;0.00;;;;;;;;;;5087593;28;20065;-62
2022/01/09 04:02:37;;;;;;;0.03;0.03;;;;;;;;;;5089958;28;20058;-62
2022/01/09 04:05:02;;;;;;;0.00;0.00;;;;;;;;;;5089610;28;20066;-62
2022/01/09 04:07:28;;;;;;;0.00;0.00;;;;;;;;;;5090205;28;20015;-62
2022/01/09 04:09:53;;;;;;;0.00;0.00;;;;;;;;;;5090075;28;20032;-62
2022/01/09 04:12:19;;;;;;;0.00;0.00;;;;;;;;;;5089187;28;20054;-63
2022/01/09 04:14:45;;;;;;;0.25;0.00;;;;;;;;;;5089958;28;20161;-62
2022/01/09 04:17:27;;;;;;;0.00;0.00;;;;;;;;;;5089481;28;20537;-62
2022/01/09 04:19:53;;;;;;;0.00;0.00;;;;;;;;;;5089274;28;20031;-62
2022/01/09 04:22:18;;;;;;;0.10;0.10;;;;;;;;;;5089406;28;20485;-62
2022/01/09 04:24:43;;;;;;;0.00;0.00;;;;;;;;;;5089643;28;20016;-62
2022/01/09 04:27:09;;;;;;;0.00;0.00;;;;;;;;;;5089296;28;20380;-63
2022/01/09 04:29:34;;;;;;;0.00;0.00;;;;;;;;;;5087689;28;20389;-62
2022/01/09 04:31:59;;;;;;;0.00;0.00;;;;;;;;;;5088621;28;20016;-62
2022/01/09 04:34:24;;;;;;;0.00;0.00;;;;;;;;;;5088196;28;20024;-63
2022/01/09 04:36:50;;;;;;;0.00;0.00;;;;;;;;;;5089825;28;20031;-62
2022/01/09 04:39:15;;;;;;;0.00;0.00;;;;;;;;;;5088955;28;20920;-62
2022/01/09 04:41:41;;;;;;;0.00;0.00;;;;;;;;;;5089430;28;20032;-62
2022/01/09 04:44:06;;;;;;;0.10;0.10;;;;;;;;;;5089073;28;20024;-62
2022/01/09 04:46:41;;;;;;;0.20;0.20;;;;;;;;;;5088747;28;20476;-62
2022/01/09 04:49:07;;;;;;;0.00;0.00;;;;;;;;;;5088679;28;20061;-62
2022/01/09 04:51:32;;;;;;;0.00;0.00;;;;;;;;;;5089253;28;20469;-62
2022/01/09 04:53:57;;;;;;;0.00;0.00;;;;;;;;;;5088938;28;20021;-62
2022/01/09 04:56:22;;;;;;;0.00;0.00;;;;;;;;;;5089319;28;20028;-62
2022/01/09 04:58:48;;;;;;;0.13;0.00;;;;;;;;;;5087251;28;20016;-62
2022/01/09 05:01:13;;;;;;;0.00;0.00;;;;;;;;;;5088048;28;20020;-62
2022/01/09 05:03:38;;;;;;;0.00;0.00;;;;;;;;;;5088588;28;20023;-62
2022/01/09 05:06:03;;;;;;;0.00;0.00;;;;;;;;;;5088591;28;20465;-62
2022/01/09 05:08:29;;;;;;;0.00;0.00;;;;;;;;;;5088947;28;20457;-63
2022/01/09 05:10:54;;;;;;;0.00;0.00;;;;;;;;;;5089330;28;20218;-63
2022/01/09 05:13:19;;;;;;;0.00;0.00;;;;;;;;;;5088448;28;20147;-62
2022/01/09 05:15:44;;;;;;;0.10;0.10;;;;;;;;;;5088364;28;20476;-62
2022/01/09 05:18:14;;;;;;;0.13;0.05;;;;;;;;;;5088321;28;20037;-62
2022/01/09 05:20:39;;;;;;;;;;;;;;;;;;5089123;28;20020;-62
2022/01/09 05:23:04;;;;;;;0.00;0.00;;;;;;;;;;5088130;28;19934;-63
2022/01/09 05:25:29;;;;;;;0.00;0.00;;;;;;;;;;5087172;28;20073;-61
2022/01/09 05:27:55;;;;;;;0.10;0.10;;;;;;;;;;5088687;28;20474;-62
2022/01/09 05:30:20;;;;;;;0.00;0.00;;;;;;;;;;5088206;28;20485;-62
2022/01/09 05:32:45;;;;;;;0.00;0.00;;;;;;;;;;5086302;28;20101;-62
2022/01/09 05:35:10;;;;;;;0.00;0.00;;;;;;;;;;5087544;28;20081;-62
2022/01/09 05:37:36;;;;;;;0.00;0.00;;;;;;;;;;5088630;28;20586;-62
2022/01/09 05:40:01;;;;;;;0.00;0.00;;;;;;;;;;5087719;28;20034;-62
2022/01/09 05:42:26;;;;;;;0.17;0.17;;;;;;;;;;5088627;28;20431;-62
2022/01/09 05:44:51;;;;;;;0.00;0.00;;;;;;;;;;5087153;28;20022;-62
2022/01/09 05:47:17;;;;;;;0.00;0.00;;;;;;;;;;5087431;28;20038;-62
2022/01/09 05:49:42;;;;;;;0.00;0.00;;;;;;;;;;5088931;28;20026;-62
2022/01/09 05:52:07;;;;;;;0.00;0.00;;;;;;;;;;5088040;28;20020;-62
2022/01/09 05:54:33;;;;;;;0.00;0.00;;;;;;;;;;5087063;28;20058;-62
2022/01/09 05:56:58;;;;;;;0.00;0.00;;;;;;;;;;5088413;28;20020;-62
2022/01/09 05:59:23;;;;;;;0.00;0.00;;;;;;;;;;5088324;28;20028;-62
2022/01/09 06:01:48;;;;;;;0.00;0.00;;;;;;;;;;5088073;28;20051;-63
2022/01/09 06:04:13;;;;;;;0.00;0.00;;;;;;;;;;5087929;28;20449;-62
2022/01/09 06:06:39;;;;;;;0.00;0.00;;;;;;;;;;5088424;28;20020;-62
2022/01/09 06:09:04;;;;;;;0.00;0.00;;;;;;;;;;5087842;28;20055;-62
2022/01/09 06:11:29;;;;;;;0.10;0.00;;;;;;;;;;5088853;28;20028;-62
2022/01/09 06:13:55;;;;;;;0.00;0.00;;;;;;;;;;5092187;28;20020;-63
2022/01/09 06:16:22;;;;;;;0.00;0.00;;;;;;;;;;5090933;28;20020;-63
2022/01/09 06:18:47;;;;;;;0.00;0.00;;;;;;;;;;5092416;28;20434;-62
2022/01/09 06:21:12;;;;;;;0.00;0.00;;;;;;;;;;5091549;28;20016;-62
2022/01/09 06:23:37;;;;;;;0.00;0.00;;;;;;;;;;5090151;28;20031;-62
2022/01/09 06:26:03;;;;;;;0.00;0.00;;;;;;;;;;5091692;28;20017;-63
2022/01/09 06:28:28;;;;;;;0.00;0.00;;;;;;;;;;5091798;28;20024;-62
2022/01/09 06:30:53;;;;;;;0.00;0.00;;;;;;;;;;5091687;28;20082;-62
2022/01/09 06:33:18;;;;;;;0.00;0.00;;;;;;;;;;5091245;28;20019;-62
2022/01/09 06:35:44;;;;;;;0.00;0.00;;;;;;;;;;5091902;28;20085;-62
2022/01/09 06:38:09;;;;;;;0.00;0.00;;;;;;;;;;5091205;28;20020;-61
2022/01/09 06:40:35;;;;;;;0.00;0.00;;;;;;;;;;5091844;28;20024;-62
2022/01/09 06:43:01;;;;;;;0.45;0.38;;;;;;;;;;5091863;28;20027;-62
2022/01/09 06:45:27;;;;;;;0.00;0.00;;;;;;;;;;5091199;28;20023;-62
2022/01/09 06:47:52;;;;;;;0.00;0.00;;;;;;;;;;5091437;28;20102;-62
2022/01/09 06:50:18;;;;;;;0.00;0.00;;;;;;;;;;5091026;28;20502;-62
2022/01/09 06:52:43;;;;;;;0.00;0.00;;;;;;;;;;5089874;28;20031;-62
2022/01/09 06:55:08;;;;;;;0.00;0.00;;;;;;;;;;5091168;28;20024;-62
2022/01/09 06:57:34;;;;;;;0.00;0.00;;;;;;;;;;5091992;28;20024;-62
2022/01/09 06:59:59;;;;;;;0.88;0.47;;;;;;;;;;5091795;28;20708;-62
2022/01/09 07:02:24;;;;;;;0.00;0.00;;;;;;;;;;5090910;28;20080;-62
2022/01/09 07:04:50;;;;;;;0.00;0.00;;;;;;;;;;5091415;28;20099;-62
2022/01/09 07:07:15;;;;;;;0.00;0.00;;;;;;;;;;5091192;28;20044;-62
2022/01/09 07:09:40;;;;;;;0.00;0.00;;;;;;;;;;5091152;28;20059;-62
2022/01/09 07:12:07;;;;;;;0.30;0.30;;;;;;;;;;5090774;28;20441;-63
2022/01/09 07:14:32;;;;;;;0.00;0.00;;;;;;;;;;5091078;28;20024;-63
2022/01/09 07:16:57;;;;;;;0.00;0.00;;;;;;;;;;5090439;28;20070;-62
2022/01/09 07:19:22;;;;;;;0.00;0.00;;;;;;;;;;5089417;28;20020;-62
2022/01/09 07:21:48;;;;;;;0.45;0.10;;;;;;;;;;5087981;28;20016;-62
2022/01/09 07:24:13;;;;;;;0.20;0.20;;;;;;;;;;5089893;28;20024;-63
2022/01/09 07:26:38;;;;;;;1.20;0.77;;;;;;;;;;5090287;28;20012;-62
2022/01/09 07:29:03;;;;;;;0.00;0.00;;;;;;;;;;5089766;28;20068;-63
2022/01/09 07:31:29;;;;;;;0.00;0.00;;;;;;;;;;5089058;28;20075;-63
2022/01/09 07:33:54;;;;;;;0.65;0.65;;;;;;;;;;5090469;28;20410;-61
2022/01/09 07:36:19;;;;;;;0.13;0.13;;;;;;;;;;5089877;28;20073;-62
2022/01/09 07:38:44;;;;;;;0.00;0.00;;;;;;;;;;5090354;28;20036;-62
2022/01/09 07:41:12;;;;;;;0.00;0.00;;;;;;;;;;5089528;28;20050;-62
2022/01/09 07:43:37;;;;;;;0.00;0.00;;;;;;;;;;5089987;28;20023;-62
2022/01/09 07:46:03;;;;;;;0.00;0.00;;;;;;;;;;5089309;28;20023;-63
2022/01/09 07:48:28;;;;;;;0.25;0.25;;;;;;;;;;5088715;28;20067;-62
2022/01/09 07:50:53;;;;;;;0.00;0.00;;;;;;;;;;5087374;28;20095;-62
2022/01/09 07:53:23;;;;;;;0.00;0.00;;;;;;;;;;5088060;28;20165;-62
2022/01/09 07:55:48;;;;;;;;;;;;;;;;;;5090545;28;20035;-62
2022/01/09 07:58:13;;;;;;;0.10;0.10;;;;;;;;;;5090285;28;19908;-62
2022/01/09 08:00:38;;;;;;;0.57;0.43;;;;;;;;;;5090716;28;20293;-62
2022/01/09 08:03:03;;;;;;;2.75;0.52;;;;;;;;;;5091932;28;20038;-61
2022/01/09 08:05:29;;;;;;;0.22;0.22;;;;;;;;;;5088943;28;20389;-61
2022/01/09 08:07:54;;;;;;;0.00;0.00;;;;;;;;;;5089450;28;20625;-62
2022/01/09 08:10:19;;;;;;;4.68;0.63;;;;;;;;;;5088823;28;20035;-62
2022/01/09 08:12:44;;;;;;;0.00;0.00;;;;;;;;;;5089183;28;20024;-62
2022/01/09 08:15:11;;;;;;;0.00;0.00;;;;;;;;;;5088566;28;20453;-63
2022/01/09 08:17:36;;;;;;;1.00;1.00;;;;;;;;;;5089379;28;20020;-63
2022/01/09 08:20:02;;;;;;;0.10;0.10;;;;;;;;;;5088305;28;20107;-63
2022/01/09 08:22:29;;;;;;;1.20;0.63;;;;;;;;;;5088499;28;20040;-63
2022/01/09 08:24:54;;;;;;;0.00;0.00;;;;;;;;;;5089540;28;20027;-63
2022/01/09 08:27:20;;;;;;;3.95;0.45;;;;;;;;;;5088726;28;20362;-63
2022/01/09 08:29:45;;;;;;;2.95;1.40;;;;;;;;;;5089140;28;20109;-63
2022/01/09 08:32:12;;;;;;;7.72;2.15;;;;;;;;;;5088710;28;20020;-63
2022/01/09 08:34:37;;;;;;;0.00;0.00;;;;;;;;;;5088323;28;20023;-63
2022/01/09 08:37:03;;;;;;;0.30;0.30;;;;;;;;;;5089447;28;20083;-63
2022/01/09 08:39:28;;;;;;;4.15;2.72;;;;;;;;;;5088260;28;20032;-63
2022/01/09 08:41:53;;;;;;;0.70;0.70;;;;;;;;;;5088698;28;20020;-64
2022/01/09 08:44:18;;;;;;;0.08;0.08;;;;;;;;;;5088514;28;20013;-63
2022/01/09 08:46:44;;;;;;;1.85;1.75;;;;;;;;;;5088629;28;20103;-63
2022/01/09 08:49:09;;;;;;;0.05;0.05;;;;;;;;;;5087312;28;20022;-63
2022/01/09 08:51:34;;;;;;;18.25;2.92;;;;;;;;;;5088915;28;20024;-63
2022/01/09 08:53:59;;;;;;;1.77;1.77;;;;;;;;;;5088453;28;20049;-63
2022/01/09 08:56:26;;;;;;;0.00;0.00;;;;;;;;;;5087693;28;20119;-63
2022/01/09 08:58:51;;;;;;;0.00;0.00;;;;;;;;;;5087857;28;20051;-63
2022/01/09 09:01:17;;;;;;;0.10;0.10;;;;;;;;;;5087061;28;20476;-63
2022/01/09 09:03:42;;;;;;;0.00;0.00;;;;;;;;;;5089107;28;20016;-63
2022/01/09 09:06:08;;;;;;;0.20;0.20;;;;;;;;;;5088395;28;20019;-62
2022/01/09 09:08:34;;;;;;;0.20;0.20;;;;;;;;;;5088788;28;20027;-62
2022/01/09 09:10:59;;;;;;;0.00;0.00;;;;;;;;;;5088791;28;20030;-63
2022/01/09 09:13:24;;;;;;;0.80;0.17;;;;;;;;;;5088568;28;20107;-62
2022/01/09 09:15:49;;;;;;;3.53;2.28;;;;;;;;;;5087028;28;20096;-62
2022/01/09 09:18:15;;;;;;;0.22;0.22;;;;;;;;;;5088008;28;20039;-70
2022/01/09 09:20:40;;;;;;;0.00;0.00;;;;;;;;;;5087130;28;20031;-70
2022/01/09 09:23:05;;;;;;;0.45;0.38;;;;;;;;;;5088404;28;20026;-70
2022/01/09 09:25:31;;;;;;;0.90;0.85;;;;;;;;;;5088788;28;20061;-72
2022/01/09 09:27:56;;;;;;;0.00;0.00;;;;;;;;;;5088700;28;20028;-71
2022/01/09 09:30:21;;;;;;;5.28;4.88;;;;;;;;;;5088146;28;20055;-71
2022/01/09 09:32:49;;;;;;;0.15;0.15;;;;;;;;;;5088559;28;20544;-71
2022/01/09 09:35:14;;;;;;;2.17;1.98;;;;;;;;;;5088243;28;20108;-71
2022/01/09 09:37:39;;;;;;;0.00;0.00;;;;;;;;;;5087487;28;20099;-71
2022/01/09 09:40:05;;;;;;;0.00;0.00;;;;;;;;;;5088520;28;20032;-71
2022/01/09 09:42:30;;;;;;;0.00;0.00;;;;;;;;;;5086742;28;20465;-71
2022/01/09 09:45:00;;;;;;;0.00;0.00;;;;;;;;;;5086417;28;20027;-71
2022/01/09 09:47:26;;;;;;;0.63;0.10;;;;;;;;;;5091468;28;20580;-69
2022/01/09 09:49:51;;;;;;;0.00;0.00;;;;;;;;;;5092707;28;20039;-72
2022/01/09 09:52:18;;;;;;;0.00;0.00;;;;;;;;;;5092251;28;20028;-71
2022/01/09 09:54:45;;;;;;;0.10;0.10;;;;;;;;;;5092479;28;20024;-71
2022/01/09 09:57:10;;;;;;;0.00;0.00;;;;;;;;;;5092201;28;20024;-72
2022/01/09 09:59:36;;;;;;;0.13;0.13;;;;;;;;;;5092273;28;20069;-70
2022/01/09 10:02:07;;;;;;;0.30;0.30;;;;;;;;;;5092250;28;20020;-71
2022/01/09 10:04:32;;;;;;;0.57;0.57;;;;;;;;;;5092425;28;20098;-71
2022/01/09 10:06:57;;;;;;;0.00;0.00;;;;;;;;;;5092013;28;20431;-70
2022/01/09 10:09:24;;;;;;;0.00;0.00;;;;;;;;;;5091835;28;20460;-70
2022/01/09 10:11:51;;;;;;;0.00;0.00;;;;;;;;;;5093108;28;20012;-70
2022/01/09 10:14:22;;;;;;;0.00;0.00;;;;;;;;;;5089870;28;20491;-70
2022/01/09 10:17:06;;;;;;;0.00;0.00;;;;;;;;;;5089622;28;20008;-70
2022/01/09 10:19:40;;;;;;;0.00;0.00;;;;;;;;;;5091985;28;20389;-72
2022/01/09 10:22:06;;;;;;;0.10;0.10;;;;;;;;;;5092083;28;20337;-71
2022/01/09 10:24:31;;;;;;;0.00;0.00;;;;;;;;;;5091223;28;20028;-71
2022/01/09 10:26:57;;;;;;;0.28;0.28;;;;;;;;;;5092314;28;20030;-70
2022/01/09 10:29:22;;;;;;;0.15;0.10;;;;;;;;;;5091427;28;20067;-70
2022/01/09 10:31:50;;;;;;;0.00;0.00;;;;;;;;;;5091469;28;20020;-71
2022/01/09 10:34:16;;;;;;;0.00;0.00;;;;;;;;;;5091348;28;20048;-70
2022/01/09 10:36:51;;;;;;;0.00;0.00;;;;;;;;;;5092018;28;20490;-69
2022/01/09 10:39:18;;;;;;;0.00;0.00;;;;;;;;;;5089919;28;20020;-67
2022/01/09 10:41:44;;;;;;;0.00;0.00;;;;;;;;;;5091621;28;20023;-68
2022/01/09 10:44:20;;;;;;;0.28;0.28;;;;;;;;;;5088106;28;20016;-68
2022/01/09 10:46:55;;;;;;;0.00;0.00;;;;;;;;;;5091460;28;20047;-68
2022/01/09 10:49:20;;;;;;;0.00;0.00;;;;;;;;;;5090930;28;20483;-67
2022/01/09 10:51:45;;;;;;;0.10;0.10;;;;;;;;;;5091434;28;20020;-67
2022/01/09 10:54:26;;;;;;;0.00;0.00;;;;;;;;;;5091143;28;20536;-67
2022/01/09 10:57:07;;;;;;;0.00;0.00;;;;;;;;;;5090170;28;20055;-67
2022/01/09 10:59:32;;;;;;;0.63;0.63;;;;;;;;;;5090226;28;20185;-66
2022/01/09 11:02:00;;;;;;;0.00;0.00;;;;;;;;;;5090776;28;20020;-67
2022/01/09 11:04:25;;;;;;;1.45;0.75;;;;;;;;;;5090851;28;20020;-67
2022/01/09 11:06:50;;;;;;;1.42;1.42;;;;;;;;;;5089881;28;20069;-67
2022/01/09 11:09:17;;;;;;;0.30;0.30;;;;;;;;;;5085893;28;20102;-68
2022/01/09 11:11:44;;;;;;;0.00;0.00;;;;;;;;;;5086801;28;21495;-70
2022/01/09 11:14:17;;;;;;;0.00;0.00;;;;;;;;;;5088498;28;20016;-69
2022/01/09 11:16:51;;;;;;;0.15;0.15;;;;;;;;;;5091136;28;20023;-68
2022/01/09 11:19:17;;;;;;;0.00;0.00;;;;;;;;;;5090617;28;20020;-69
2022/01/09 11:21:47;;;;;;;0.00;0.00;;;;;;;;;;5090991;28;20020;-69
2022/01/09 11:24:12;;;;;;;0.65;0.65;;;;;;;;;;5089106;28;20494;-68
2022/01/09 11:26:56;;;;;;;0.88;0.80;;;;;;;;;;5088751;28;20099;-69
2022/01/09 11:29:40;;;;;;;0.00;0.00;;;;;;;;;;5090255;28;20055;-69
2022/01/09 11:32:05;;;;;;;0.00;0.00;;;;;;;;;;5090646;28;20134;-68
2022/01/09 11:34:43;;;;;;;0.00;0.00;;;;;;;;;;5088812;28;20110;-69
2022/01/09 11:37:17;;;;;;;0.00;0.00;;;;;;;;;;5090994;28;20044;-69
2022/01/09 11:39:43;;;;;;;0.80;0.80;;;;;;;;;;5090266;28;20024;-68
2022/01/09 11:42:09;;;;;;;0.00;0.00;;;;;;;;;;5088432;28;20380;-68
2022/01/09 11:44:35;;;;;;;0.13;0.10;;;;;;;;;;5089787;28;20012;-68
2022/01/09 11:47:01;;;;;;;0.45;0.32;;;;;;;;;;5090188;28;20028;-68
2022/01/09 11:49:28;;;;;;;0.00;0.00;;;;;;;;;;5090036;28;20448;-68
2022/01/09 11:51:54;;;;;;;1.35;1.15;;;;;;;;;;5090186;28;20008;-68
2022/01/09 11:54:20;;;;;;;0.20;0.20;;;;;;;;;;5089733;28;20023;-68
2022/01/09 11:56:48;;;;;;;0.47;0.47;;;;;;;;;;5090343;28;20032;-68
2022/01/09 11:59:33;;;;;;;0.03;0.03;;;;;;;;;;5089894;28;20024;-69
2022/01/09 12:02:05;;;;;;;0.00;0.00;;;;;;;;;;5090077;28;20028;-70
2022/01/09 12:04:34;;;;;;;0.00;0.00;;;;;;;;;;5090062;28;20372;-69
2022/01/09 12:07:19;;;;;;;2.45;1.17;;;;;;;;;;5089151;28;20042;-69
2022/01/09 12:09:46;;;;;;;0.00;0.00;;;;;;;;;;5086532;28;20118;-69
2022/01/09 12:12:16;;;;;;;0.00;0.00;;;;;;;;;;5087291;28;20097;-70
2022/01/09 12:14:41;;;;;;;0.00;0.00;;;;;;;;;;5090537;28;20742;-68
2022/01/09 12:17:06;;;;;;;0.32;0.32;;;;;;;;;;5089813;28;20099;-68
2022/01/09 12:19:50;;;;;;;0.00;0.00;;;;;;;;;;5089593;28;20038;-68
2022/01/09 12:22:35;;;;;;;0.00;0.00;;;;;;;;;;5087188;28;20074;-69
2022/01/09 12:25:01;;;;;;;1.65;1.15;;;;;;;;;;5089551;28;20106;-69
2022/01/09 12:27:35;;;;;;;0.00;0.00;;;;;;;;;;5088228;28;20102;-69
2022/01/09 12:30:05;;;;;;;0.00;0.00;;;;;;;;;;5089514;28;20496;-69
2022/01/09 12:32:43;;;;;;;1.10;0.15;;;;;;;;;;5089034;28;20022;-69
2022/01/09 12:35:15;;;;;;;0.00;0.00;;;;;;;;;;5089510;28;20043;-69
2022/01/09 12:37:44;;;;;;;0.00;0.00;;;;;;;;;;5087571;28;20032;-69
2022/01/09 12:40:10;;;;;;;0.08;0.08;;;;;;;;;;5088048;28;20024;-69
2022/01/09 12:42:36;;;;;;;0.70;0.70;;;;;;;;;;5089460;28;20432;-68
2022/01/09 12:45:01;;;;;;;0.00;0.00;;;;;;;;;;5087987;28;20024;-68
2022/01/09 12:47:37;;;;;;;0.10;0.10;;;;;;;;;;5087779;28;20024;-69
2022/01/09 12:50:02;;;;;;;0.32;0.32;;;;;;;;;;5089309;28;20103;-68
2022/01/09 12:52:28;;;;;;;0.00;0.00;;;;;;;;;;5088641;28;20119;-70
2022/01/09 12:55:03;;;;;;;0.05;0.05;;;;;;;;;;5088130;28;20070;-70
2022/01/09 12:57:29;;;;;;;0.00;0.00;;;;;;;;;;5086877;28;20016;-69
2022/01/09 12:59:57;;;;;;;0.25;0.25;;;;;;;;;;5087975;28;20020;-71
2022/01/09 13:02:22;;;;;;;0.00;0.00;;;;;;;;;;5088647;28;20109;-67
2022/01/09 13:04:47;;;;;;;0.00;0.00;;;;;;;;;;5089301;28;20043;-67
2022/01/09 13:07:17;;;;;;;0.00;0.00;;;;;;;;;;5087830;28;20020;-68
2022/01/09 13:09:42;;;;;;;0.00;0.00;;;;;;;;;;5088980;28;20384;-68
2022/01/09 13:12:07;;;;;;;0.00;0.00;;;;;;;;;;5089670;28;20032;-67
2022/01/09 13:14:33;;;;;;;0.00;0.00;;;;;;;;;;5088426;28;20106;-68
2022/01/09 13:16:59;;;;;;;0.20;0.20;;;;;;;;;;5087393;28;20517;-70
2022/01/09 13:19:25;;;;;;;0.00;0.00;;;;;;;;;;5088392;28;20031;-68
2022/01/09 13:21:51;;;;;;;0.00;0.00;;;;;;;;;;5089143;28;20024;-67
2022/01/09 13:24:34;;;;;;;0.00;0.00;;;;;;;;;;5087755;28;20464;-67
2022/01/09 13:27:04;;;;;;;0.00;0.00;;;;;;;;;;5088677;28;20521;-68
2022/01/09 13:29:33;;;;;;;0.00;0.00;;;;;;;;;;5087585;28;20044;-68
2022/01/09 13:32:00;;;;;;;0.00;0.00;;;;;;;;;;5088681;28;20044;-67
2022/01/09 13:34:31;;;;;;;0.00;0.00;;;;;;;;;;5088292;28;20081;-68
2022/01/09 13:36:58;;;;;;;0.00;0.00;;;;;;;;;;5086913;28;20101;-68
2022/01/09 13:39:24;;;;;;;0.00;0.00;;;;;;;;;;5087714;28;20111;-68
2022/01/09 13:41:59;;;;;;;0.00;0.00;;;;;;;;;;5087160;28;20368;-70
2022/01/09 13:44:34;;;;;;;0.00;0.00;;;;;;;;;;5086720;28;20023;-66
2022/01/09 13:47:05;;;;;;;0.00;0.00;;;;;;;;;;5088386;28;20024;-67
2022/01/09 13:49:30;;;;;;;0.00;0.00;;;;;;;;;;5088768;28;20066;-67
2022/01/09 13:51:56;;;;;;;0.00;0.00;;;;;;;;;;5088908;28;20020;-67
2022/01/09 13:54:23;;;;;;;0.00;0.00;;;;;;;;;;5087890;28;20016;-67
2022/01/09 13:57:01;;;;;;;0.00;0.00;;;;;;;;;;5088049;28;20028;-65
2022/01/09 13:59:36;;;;;;;0.00;0.00;;;;;;;;;;5086941;28;20058;-67
2022/01/09 14:02:01;;;;;;;0.00;0.00;;;;;;;;;;5092391;28;20100;-67
2022/01/09 14:04:26;;;;;;;0.00;0.00;;;;;;;;;;5087451;28;20430;-72
2022/01/09 14:06:59;;;;;;;0.00;0.00;;;;;;;;;;5088176;28;20016;-72
2022/01/09 14:09:25;;;;;;;0.00;0.00;;;;;;;;;;5087910;28;20008;-70
2022/01/09 14:12:18;;;;;;;0.00;0.00;;;;;;;;;;5088088;28;20016;-73
2022/01/09 14:14:47;;;;;;;0.22;0.20;;;;;;;;;;5082483;28;20389;-70
2022/01/09 14:17:25;;;;;;;0.00;0.00;;;;;;;;;;5087954;28;20111;-69
2022/01/09 14:19:50;;;;;;;0.00;0.00;;;;;;;;;;5088337;28;20028;-68
2022/01/09 14:22:15;;;;;;;0.00;0.00;;;;;;;;;;5088380;28;20024;-65
2022/01/09 14:24:56;;;;;;;0.00;0.00;;;;;;;;;;5087230;28;20153;-72
2022/01/09 14:27:32;;;;;;;0.05;0.05;;;;;;;;;;5087475;28;20073;-72
2022/01/09 14:29:58;;;;;;;0.10;0.10;;;;;;;;;;5087589;28;20127;-72
2022/01/09 14:32:23;;;;;;;0.03;0.03;;;;;;;;;;5087359;28;20106;-72
2022/01/09 14:34:49;;;;;;;0.00;0.00;;;;;;;;;;5088895;28;20032;-72
2022/01/09 14:37:14;;;;;;;0.00;0.00;;;;;;;;;;5092156;28;20024;-72
2022/01/09 14:39:39;;;;;;;0.00;0.00;;;;;;;;;;5091103;28;20024;-72
2022/01/09 14:42:06;;;;;;;3.10;2.95;;;;;;;;;;5090324;28;20488;-72
2022/01/09 14:44:32;;;;;;;0.00;0.00;;;;;;;;;;5092801;28;20020;-72